sensor_id;sensor_type;location;lat;lon;timestamp;temperature;humidity
67868;SHT31;54672;46.096;14.470;2023-02-28T00:00:15;0.13;78.63
67868;SHT31;54672;46.096;14.470;2023-02-28T00:02:42;0.14;79.14
67868;SHT31;54672;46.096;14.470;2023-02-28T00:05:09;0.14;79.02
67868;SHT31;54672;46.096;14.470;2023-02-28T00:07:35;0.17;79.43
67868;SHT31;54672;46.096;14.470;2023-02-28T00:10:02;0.15;78.37
67868;SHT31;54672;46.096;14.470;2023-02-28T00:12:28;0.18;78.15
67868;SHT31;54672;46.096;14.470;2023-02-28T00:14:53;0.15;79.06
67868;SHT31;54672;46.096;14.470;2023-02-28T00:17:19;0.20;77.25
67868;SHT31;54672;46.096;14.470;2023-02-28T00:19:50;0.17;77.52
67868;SHT31;54672;46.096;14.470;2023-02-28T00:22:17;0.20;77.16
67868;SHT31;54672;46.096;14.470;2023-02-28T00:24:43;0.18;77.47
67868;SHT31;54672;46.096;14.470;2023-02-28T00:27:08;0.15;78.12
67868;SHT31;54672;46.096;14.470;2023-02-28T00:29:34;0.18;77.89
67868;SHT31;54672;46.096;14.470;2023-02-28T00:31:59;0.11;78.00
67868;SHT31;54672;46.096;14.470;2023-02-28T00:34:25;0.17;77.89
67868;SHT31;54672;46.096;14.470;2023-02-28T00:36:50;0.17;78.27
67868;SHT31;54672;46.096;14.470;2023-02-28T00:39:16;0.14;78.57
67868;SHT31;54672;46.096;14.470;2023-02-28T00:41:41;0.21;78.16
67868;SHT31;54672;46.096;14.470;2023-02-28T00:44:07;0.21;77.42
67868;SHT31;54672;46.096;14.470;2023-02-28T00:46:32;0.17;76.94
67868;SHT31;54672;46.096;14.470;2023-02-28T00:48:58;0.21;76.76
67868;SHT31;54672;46.096;14.470;2023-02-28T00:51:23;0.15;78.31
67868;SHT31;54672;46.096;14.470;2023-02-28T00:53:49;0.14;78.14
67868;SHT31;54672;46.096;14.470;2023-02-28T00:56:14;0.20;77.84
67868;SHT31;54672;46.096;14.470;2023-02-28T00:58:40;0.15;78.40
67868;SHT31;54672;46.096;14.470;2023-02-28T01:01:06;0.18;77.58
67868;SHT31;54672;46.096;14.470;2023-02-28T01:03:31;0.22;77.10
67868;SHT31;54672;46.096;14.470;2023-02-28T01:05:57;0.24;76.82
67868;SHT31;54672;46.096;14.470;2023-02-28T01:08:23;0.17;77.21
67868;SHT31;54672;46.096;14.470;2023-02-28T01:10:48;0.17;77.15
67868;SHT31;54672;46.096;14.470;2023-02-28T01:13:14;0.15;77.40
67868;SHT31;54672;46.096;14.470;2023-02-28T01:15:43;0.14;78.46
67868;SHT31;54672;46.096;14.470;2023-02-28T01:18:10;0.15;78.09
67868;SHT31;54672;46.096;14.470;2023-02-28T01:20:37;0.28;77.51
67868;SHT31;54672;46.096;14.470;2023-02-28T01:23:02;0.21;77.78
67868;SHT31;54672;46.096;14.470;2023-02-28T01:25:28;0.27;77.35
67868;SHT31;54672;46.096;14.470;2023-02-28T01:27:54;0.28;77.43
67868;SHT31;54672;46.096;14.470;2023-02-28T01:30:19;0.22;77.59
67868;SHT31;54672;46.096;14.470;2023-02-28T01:32:45;0.27;77.18
67868;SHT31;54672;46.096;14.470;2023-02-28T01:35:10;0.24;77.21
67868;SHT31;54672;46.096;14.470;2023-02-28T01:37:35;0.30;76.47
67868;SHT31;54672;46.096;14.470;2023-02-28T01:40:01;0.28;77.72
67868;SHT31;54672;46.096;14.470;2023-02-28T01:42:27;0.34;76.73
67868;SHT31;54672;46.096;14.470;2023-02-28T01:45:20;0.25;77.91
67868;SHT31;54672;46.096;14.470;2023-02-28T01:47:48;0.24;77.49
67868;SHT31;54672;46.096;14.470;2023-02-28T01:50:19;0.27;76.96
67868;SHT31;54672;46.096;14.470;2023-02-28T01:52:47;0.28;77.20
67868;SHT31;54672;46.096;14.470;2023-02-28T01:55:15;0.30;77.75
67868;SHT31;54672;46.096;14.470;2023-02-28T01:57:46;0.31;77.48
67868;SHT31;54672;46.096;14.470;2023-02-28T02:00:15;0.31;77.31
67868;SHT31;54672;46.096;14.470;2023-02-28T02:02:46;0.31;77.36
67868;SHT31;54672;46.096;14.470;2023-02-28T02:05:16;0.38;77.29
67868;SHT31;54672;46.096;14.470;2023-02-28T02:07:45;0.36;77.16
67868;SHT31;54672;46.096;14.470;2023-02-28T02:10:13;0.36;77.36
67868;SHT31;54672;46.096;14.470;2023-02-28T02:18:30;0.34;76.45
67868;SHT31;54672;46.096;14.470;2023-02-28T02:26:55;0.40;77.48
67868;SHT31;54672;46.096;14.470;2023-02-28T02:35:31;0.34;77.16
67868;SHT31;54672;46.096;14.470;2023-02-28T02:40:44;0.34;77.04
67868;SHT31;54672;46.096;14.470;2023-02-28T02:45:48;0.38;76.87
67868;SHT31;54672;46.096;14.470;2023-02-28T02:48:18;0.41;76.60
67868;SHT31;54672;46.096;14.470;2023-02-28T02:51:12;0.38;77.06
67868;SHT31;54672;46.096;14.470;2023-02-28T02:53:44;0.41;77.04
67868;SHT31;54672;46.096;14.470;2023-02-28T02:56:13;0.36;77.18
67868;SHT31;54672;46.096;14.470;2023-02-28T02:58:41;0.34;77.39
67868;SHT31;54672;46.096;14.470;2023-02-28T03:01:11;0.32;77.15
67868;SHT31;54672;46.096;14.470;2023-02-28T03:03:37;0.34;76.92
67868;SHT31;54672;46.096;14.470;2023-02-28T03:06:03;0.32;77.15
67868;SHT31;54672;46.096;14.470;2023-02-28T03:08:35;0.32;76.95
67868;SHT31;54672;46.096;14.470;2023-02-28T03:11:06;0.31;76.60
67868;SHT31;54672;46.096;14.470;2023-02-28T03:14:02;0.31;76.60
67868;SHT31;54672;46.096;14.470;2023-02-28T03:25:52;0.37;75.94
67868;SHT31;54672;46.096;14.470;2023-02-28T03:28:41;0.36;76.20
67868;SHT31;54672;46.096;14.470;2023-02-28T03:31:20;0.32;75.97
67868;SHT31;54672;46.096;14.470;2023-02-28T03:34:01;0.34;75.61
67868;SHT31;54672;46.096;14.470;2023-02-28T03:36:32;0.36;76.07
67868;SHT31;54672;46.096;14.470;2023-02-28T03:39:05;0.28;76.70
67868;SHT31;54672;46.096;14.470;2023-02-28T03:41:44;0.34;76.44
67868;SHT31;54672;46.096;14.470;2023-02-28T03:44:35;0.36;76.98
67868;SHT31;54672;46.096;14.470;2023-02-28T03:47:13;0.31;77.62
67868;SHT31;54672;46.096;14.470;2023-02-28T03:49:55;0.32;77.16
67868;SHT31;54672;46.096;14.470;2023-02-28T03:52:24;0.32;77.53
67868;SHT31;54672;46.096;14.470;2023-02-28T03:54:54;0.42;77.06
67868;SHT31;54672;46.096;14.470;2023-02-28T03:57:28;0.41;77.24
67868;SHT31;54672;46.096;14.470;2023-02-28T04:00:08;0.42;77.36
67868;SHT31;54672;46.096;14.470;2023-02-28T04:02:35;0.47;76.91
67868;SHT31;54672;46.096;14.470;2023-02-28T04:05:01;0.50;76.78
67868;SHT31;54672;46.096;14.470;2023-02-28T04:07:29;0.54;76.55
67868;SHT31;54672;46.096;14.470;2023-02-28T04:09:55;0.57;76.79
67868;SHT31;54672;46.096;14.470;2023-02-28T04:12:21;0.54;76.55
67868;SHT31;54672;46.096;14.470;2023-02-28T04:14:48;0.58;76.76
67868;SHT31;54672;46.096;14.470;2023-02-28T04:17:14;0.55;76.63
67868;SHT31;54672;46.096;14.470;2023-02-28T04:19:39;0.51;76.77
67868;SHT31;54672;46.096;14.470;2023-02-28T04:22:05;0.52;75.44
67868;SHT31;54672;46.096;14.470;2023-02-28T04:24:30;0.48;76.08
67868;SHT31;54672;46.096;14.470;2023-02-28T04:26:57;0.42;76.11
67868;SHT31;54672;46.096;14.470;2023-02-28T04:29:28;0.45;76.34
67868;SHT31;54672;46.096;14.470;2023-02-28T04:31:54;0.47;76.37
67868;SHT31;54672;46.096;14.470;2023-02-28T04:34:21;0.32;78.28
67868;SHT31;54672;46.096;14.470;2023-02-28T04:36:47;0.28;81.29
67868;SHT31;54672;46.096;14.470;2023-02-28T04:39:19;0.34;82.79
67868;SHT31;54672;46.096;14.470;2023-02-28T04:41:45;0.38;83.11
67868;SHT31;54672;46.096;14.470;2023-02-28T04:44:11;0.40;83.08
67868;SHT31;54672;46.096;14.470;2023-02-28T04:46:36;0.30;82.04
67868;SHT31;54672;46.096;14.470;2023-02-28T04:49:02;0.03;82.85
67868;SHT31;54672;46.096;14.470;2023-02-28T04:51:28;0.00;84.53
67868;SHT31;54672;46.096;14.470;2023-02-28T04:53:53;0.04;83.14
67868;SHT31;54672;46.096;14.470;2023-02-28T04:56:19;-0.11;83.91
67868;SHT31;54672;46.096;14.470;2023-02-28T04:58:45;-0.09;84.79
67868;SHT31;54672;46.096;14.470;2023-02-28T05:01:23;-0.13;85.64
67868;SHT31;54672;46.096;14.470;2023-02-28T05:03:50;-0.04;85.29
67868;SHT31;54672;46.096;14.470;2023-02-28T05:06:15;0.00;84.42
67868;SHT31;54672;46.096;14.470;2023-02-28T05:08:41;-0.03;85.05
67868;SHT31;54672;46.096;14.470;2023-02-28T05:11:15;0.01;85.61
67868;SHT31;54672;46.096;14.470;2023-02-28T05:13:40;0.03;85.58
67868;SHT31;54672;46.096;14.470;2023-02-28T05:16:06;0.13;85.29
67868;SHT31;54672;46.096;14.470;2023-02-28T05:18:31;0.07;84.38
67868;SHT31;54672;46.096;14.470;2023-02-28T05:20:57;0.09;84.21
67868;SHT31;54672;46.096;14.470;2023-02-28T05:23:22;0.13;85.04
67868;SHT31;54672;46.096;14.470;2023-02-28T05:25:48;0.20;83.39
67868;SHT31;54672;46.096;14.470;2023-02-28T05:28:14;0.34;84.52
67868;SHT31;54672;46.096;14.470;2023-02-28T05:30:39;0.27;82.81
67868;SHT31;54672;46.096;14.470;2023-02-28T05:33:05;0.37;83.24
67868;SHT31;54672;46.096;14.470;2023-02-28T05:35:30;0.40;80.81
67868;SHT31;54672;46.096;14.470;2023-02-28T05:37:56;0.41;81.94
67868;SHT31;54672;46.096;14.470;2023-02-28T05:40:21;0.48;79.89
67868;SHT31;54672;46.096;14.470;2023-02-28T05:42:47;0.60;78.00
67868;SHT31;54672;46.096;14.470;2023-02-28T05:45:12;0.71;76.77
67868;SHT31;54672;46.096;14.470;2023-02-28T05:47:38;0.65;77.63
67868;SHT31;54672;46.096;14.470;2023-02-28T05:50:04;0.69;77.37
67868;SHT31;54672;46.096;14.470;2023-02-28T05:52:31;0.68;77.17
67868;SHT31;54672;46.096;14.470;2023-02-28T05:54:56;0.65;78.04
67868;SHT31;54672;46.096;14.470;2023-02-28T05:57:22;0.71;77.57
67868;SHT31;54672;46.096;14.470;2023-02-28T05:59:47;0.71;77.24
67868;SHT31;54672;46.096;14.470;2023-02-28T06:02:14;0.68;77.46
67868;SHT31;54672;46.096;14.470;2023-02-28T06:04:40;0.71;76.71
67868;SHT31;54672;46.096;14.470;2023-02-28T06:07:07;0.71;77.17
67868;SHT31;54672;46.096;14.470;2023-02-28T06:09:32;0.65;77.21
67868;SHT31;54672;46.096;14.470;2023-02-28T06:11:59;0.68;77.64
67868;SHT31;54672;46.096;14.470;2023-02-28T06:14:24;0.72;77.87
67868;SHT31;54672;46.096;14.470;2023-02-28T06:16:50;0.73;77.49
67868;SHT31;54672;46.096;14.470;2023-02-28T06:19:16;0.75;77.78
67868;SHT31;54672;46.096;14.470;2023-02-28T06:21:42;0.75;77.98
67868;SHT31;54672;46.096;14.470;2023-02-28T06:24:08;0.71;77.96
67868;SHT31;54672;46.096;14.470;2023-02-28T06:26:33;0.73;77.83
67868;SHT31;54672;46.096;14.470;2023-02-28T06:28:59;0.75;77.85
67868;SHT31;54672;46.096;14.470;2023-02-28T06:31:26;0.66;78.35
67868;SHT31;54672;46.096;14.470;2023-02-28T06:33:54;0.69;78.78
67868;SHT31;54672;46.096;14.470;2023-02-28T06:36:20;0.72;78.63
67868;SHT31;54672;46.096;14.470;2023-02-28T06:38:46;0.73;78.45
67868;SHT31;54672;46.096;14.470;2023-02-28T06:41:16;0.83;77.98
67868;SHT31;54672;46.096;14.470;2023-02-28T06:43:42;0.76;77.94
67868;SHT31;54672;46.096;14.470;2023-02-28T06:46:09;0.78;77.64
67868;SHT31;54672;46.096;14.470;2023-02-28T06:48:35;0.79;78.55
67868;SHT31;54672;46.096;14.470;2023-02-28T06:51:06;0.78;78.22
67868;SHT31;54672;46.096;14.470;2023-02-28T06:53:32;0.76;78.21
67868;SHT31;54672;46.096;14.470;2023-02-28T06:55:57;0.75;78.00
67868;SHT31;54672;46.096;14.470;2023-02-28T06:58:23;0.83;78.03
67868;SHT31;54672;46.096;14.470;2023-02-28T07:00:51;0.81;77.95
67868;SHT31;54672;46.096;14.470;2023-02-28T07:03:17;0.78;77.91
67868;SHT31;54672;46.096;14.470;2023-02-28T07:05:44;0.78;78.84
67868;SHT31;54672;46.096;14.470;2023-02-28T07:08:09;0.76;78.49
67868;SHT31;54672;46.096;14.470;2023-02-28T07:10:37;0.75;78.44
67868;SHT31;54672;46.096;14.470;2023-02-28T07:13:04;0.78;79.02
67868;SHT31;54672;46.096;14.470;2023-02-28T07:15:29;0.78;78.96
67868;SHT31;54672;46.096;14.470;2023-02-28T07:17:55;0.79;78.34
67868;SHT31;54672;46.096;14.470;2023-02-28T07:20:22;0.76;79.00
67868;SHT31;54672;46.096;14.470;2023-02-28T07:22:48;0.82;78.76
67868;SHT31;54672;46.096;14.470;2023-02-28T07:25:21;0.79;78.77
67868;SHT31;54672;46.096;14.470;2023-02-28T07:27:46;0.82;78.97
67868;SHT31;54672;46.096;14.470;2023-02-28T07:30:12;0.79;78.90
67868;SHT31;54672;46.096;14.470;2023-02-28T07:32:38;0.81;79.41
67868;SHT31;54672;46.096;14.470;2023-02-28T07:35:03;0.81;79.14
67868;SHT31;54672;46.096;14.470;2023-02-28T07:37:29;0.82;79.63
67868;SHT31;54672;46.096;14.470;2023-02-28T07:39:56;0.86;79.26
67868;SHT31;54672;46.096;14.470;2023-02-28T07:42:22;0.81;79.81
67868;SHT31;54672;46.096;14.470;2023-02-28T07:44:48;0.85;80.00
67868;SHT31;54672;46.096;14.470;2023-02-28T07:47:13;0.89;79.26
67868;SHT31;54672;46.096;14.470;2023-02-28T07:49:39;0.89;79.50
67868;SHT31;54672;46.096;14.470;2023-02-28T07:52:06;0.89;80.17
67868;SHT31;54672;46.096;14.470;2023-02-28T07:54:32;0.95;79.76
67868;SHT31;54672;46.096;14.470;2023-02-28T07:56:58;0.93;79.55
67868;SHT31;54672;46.096;14.470;2023-02-28T07:59:23;0.88;79.99
67868;SHT31;54672;46.096;14.470;2023-02-28T08:01:49;0.85;79.93
67868;SHT31;54672;46.096;14.470;2023-02-28T08:04:16;0.86;80.17
67868;SHT31;54672;46.096;14.470;2023-02-28T08:06:41;0.89;79.87
67868;SHT31;54672;46.096;14.470;2023-02-28T08:09:07;0.93;79.44
67868;SHT31;54672;46.096;14.470;2023-02-28T08:11:33;0.93;79.75
67868;SHT31;54672;46.096;14.470;2023-02-28T08:13:58;0.86;79.79
67868;SHT31;54672;46.096;14.470;2023-02-28T08:16:24;0.95;80.35
67868;SHT31;54672;46.096;14.470;2023-02-28T08:18:52;0.93;79.65
67868;SHT31;54672;46.096;14.470;2023-02-28T08:21:19;0.93;80.09
67868;SHT31;54672;46.096;14.470;2023-02-28T08:23:50;0.85;79.89
67868;SHT31;54672;46.096;14.470;2023-02-28T08:26:17;0.91;80.69
67868;SHT31;54672;46.096;14.470;2023-02-28T08:28:43;0.95;80.47
67868;SHT31;54672;46.096;14.470;2023-02-28T08:31:11;0.97;80.16
67868;SHT31;54672;46.096;14.470;2023-02-28T08:33:37;1.06;80.64
67868;SHT31;54672;46.096;14.470;2023-02-28T08:36:04;0.97;80.75
67868;SHT31;54672;46.096;14.470;2023-02-28T08:38:30;1.06;80.22
67868;SHT31;54672;46.096;14.470;2023-02-28T08:41:00;1.09;80.77
67868;SHT31;54672;46.096;14.470;2023-02-28T08:43:27;1.15;79.80
67868;SHT31;54672;46.096;14.470;2023-02-28T08:45:53;1.16;79.98
67868;SHT31;54672;46.096;14.470;2023-02-28T08:48:19;1.20;80.35
67868;SHT31;54672;46.096;14.470;2023-02-28T08:51:01;1.13;80.37
67868;SHT31;54672;46.096;14.470;2023-02-28T08:53:26;1.07;80.13
67868;SHT31;54672;46.096;14.470;2023-02-28T08:56:00;1.16;79.87
67868;SHT31;54672;46.096;14.470;2023-02-28T08:58:26;1.24;80.14
67868;SHT31;54672;46.096;14.470;2023-02-28T09:00:52;1.19;79.38
67868;SHT31;54672;46.096;14.470;2023-02-28T09:03:17;1.20;78.34
67868;SHT31;54672;46.096;14.470;2023-02-28T09:05:58;1.30;78.63
67868;SHT31;54672;46.096;14.470;2023-02-28T09:08:25;1.24;78.70
67868;SHT31;54672;46.096;14.470;2023-02-28T09:10:51;1.15;78.90
67868;SHT31;54672;46.096;14.470;2023-02-28T09:13:17;1.29;79.02
67868;SHT31;54672;46.096;14.470;2023-02-28T09:15:43;1.33;79.19
67868;SHT31;54672;46.096;14.470;2023-02-28T09:18:08;1.27;77.88
67868;SHT31;54672;46.096;14.470;2023-02-28T09:20:37;1.16;79.19
67868;SHT31;54672;46.096;14.470;2023-02-28T09:23:02;1.23;79.25
67868;SHT31;54672;46.096;14.470;2023-02-28T09:25:28;1.30;78.42
67868;SHT31;54672;46.096;14.470;2023-02-28T09:27:53;1.37;78.11
67868;SHT31;54672;46.096;14.470;2023-02-28T09:30:19;1.36;77.95
67868;SHT31;54672;46.096;14.470;2023-02-28T09:32:44;1.36;78.06
67868;SHT31;54672;46.096;14.470;2023-02-28T09:35:20;1.37;78.54
67868;SHT31;54672;46.096;14.470;2023-02-28T09:37:47;1.43;78.35
67868;SHT31;54672;46.096;14.470;2023-02-28T09:40:14;1.47;78.50
67868;SHT31;54672;46.096;14.470;2023-02-28T09:42:42;1.50;78.25
67868;SHT31;54672;46.096;14.470;2023-02-28T09:47:48;1.58;78.10
67868;SHT31;54672;46.096;14.470;2023-02-28T09:52:53;1.61;77.58
67868;SHT31;54672;46.096;14.470;2023-02-28T09:55:32;1.62;77.48
67868;SHT31;54672;46.096;14.470;2023-02-28T09:58:00;1.58;78.08
67868;SHT31;54672;46.096;14.470;2023-02-28T10:00:38;1.72;77.12
67868;SHT31;54672;46.096;14.470;2023-02-28T10:05:43;1.70;77.66
67868;SHT31;54672;46.096;14.470;2023-02-28T10:08:18;1.64;77.15
67868;SHT31;54672;46.096;14.470;2023-02-28T10:10:58;1.74;78.17
67868;SHT31;54672;46.096;14.470;2023-02-28T10:13:33;1.82;78.70
67868;SHT31;54672;46.096;14.470;2023-02-28T10:16:05;1.92;77.47
67868;SHT31;54672;46.096;14.470;2023-02-28T10:18:49;2.02;77.30
67868;SHT31;54672;46.096;14.470;2023-02-28T10:21:26;1.99;76.97
67868;SHT31;54672;46.096;14.470;2023-02-28T10:23:59;1.91;77.57
67868;SHT31;54672;46.096;14.470;2023-02-28T10:26:28;1.84;77.56
67868;SHT31;54672;46.096;14.470;2023-02-28T10:28:56;1.78;77.45
67868;SHT31;54672;46.096;14.470;2023-02-28T10:31:21;1.84;77.90
67868;SHT31;54672;46.096;14.470;2023-02-28T10:33:48;1.75;77.04
67868;SHT31;54672;46.096;14.470;2023-02-28T10:36:16;1.79;77.27
67868;SHT31;54672;46.096;14.470;2023-02-28T10:38:43;1.86;78.01
67868;SHT31;54672;46.096;14.470;2023-02-28T10:41:15;1.98;78.29
67868;SHT31;54672;46.096;14.470;2023-02-28T10:43:42;2.11;77.30
67868;SHT31;54672;46.096;14.470;2023-02-28T10:48:41;2.18;76.83
67868;SHT31;54672;46.096;14.470;2023-02-28T10:51:14;2.21;77.26
67868;SHT31;54672;46.096;14.470;2023-02-28T10:59:03;2.30;75.85
67868;SHT31;54672;46.096;14.470;2023-02-28T11:03:58;2.36;76.03
67868;SHT31;54672;46.096;14.470;2023-02-28T11:06:31;2.47;75.68
67868;SHT31;54672;46.096;14.470;2023-02-28T11:09:04;2.40;75.74
67868;SHT31;54672;46.096;14.470;2023-02-28T11:11:45;2.54;76.41
67868;SHT31;54672;46.096;14.470;2023-02-28T11:14:26;2.47;74.89
67868;SHT31;54672;46.096;14.470;2023-02-28T11:16:53;2.50;75.97
67868;SHT31;54672;46.096;14.470;2023-02-28T11:19:23;2.52;75.00
67868;SHT31;54672;46.096;14.470;2023-02-28T11:22:01;2.58;74.74
67868;SHT31;54672;46.096;14.470;2023-02-28T11:24:31;2.63;74.50
67868;SHT31;54672;46.096;14.470;2023-02-28T11:26:58;2.70;74.62
67868;SHT31;54672;46.096;14.470;2023-02-28T11:29:26;2.79;73.95
67868;SHT31;54672;46.096;14.470;2023-02-28T11:34:27;2.87;74.74
67868;SHT31;54672;46.096;14.470;2023-02-28T11:36:54;2.88;72.83
67868;SHT31;54672;46.096;14.470;2023-02-28T11:39:22;2.94;73.06
67868;SHT31;54672;46.096;14.470;2023-02-28T11:45:07;2.90;72.96
67868;SHT31;54672;46.096;14.470;2023-02-28T11:47:45;2.85;72.72
67868;SHT31;54672;46.096;14.470;2023-02-28T11:56:31;2.90;73.70
67868;SHT31;54672;46.096;14.470;2023-02-28T12:08:04;3.00;74.09
67868;SHT31;54672;46.096;14.470;2023-02-28T12:10:42;3.12;73.08
67868;SHT31;54672;46.096;14.470;2023-02-28T12:13:26;3.46;72.47
67868;SHT31;54672;46.096;14.470;2023-02-28T12:21:14;3.26;73.00
67868;SHT31;54672;46.096;14.470;2023-02-28T12:29:32;3.22;72.09
67868;SHT31;54672;46.096;14.470;2023-02-28T12:32:12;2.97;71.38
67868;SHT31;54672;46.096;14.470;2023-02-28T12:34:42;2.94;72.36
67868;SHT31;54672;46.096;14.470;2023-02-28T12:37:21;3.08;72.63
67868;SHT31;54672;46.096;14.470;2023-02-28T12:39:51;3.16;72.42
67868;SHT31;54672;46.096;14.470;2023-02-28T12:42:30;3.28;72.36
67868;SHT31;54672;46.096;14.470;2023-02-28T12:44:59;3.58;71.81
67868;SHT31;54672;46.096;14.470;2023-02-28T12:47:26;3.69;70.36
67868;SHT31;54672;46.096;14.470;2023-02-28T12:50:08;3.55;69.59
67868;SHT31;54672;46.096;14.470;2023-02-28T13:09:32;3.59;69.75
67868;SHT31;54672;46.096;14.470;2023-02-28T13:11:58;3.58;69.56
67868;SHT31;54672;46.096;14.470;2023-02-28T13:14:44;3.42;70.17
67868;SHT31;54672;46.096;14.470;2023-02-28T13:17:19;3.39;70.30
67868;SHT31;54672;46.096;14.470;2023-02-28T13:24:51;3.01;71.05
67868;SHT31;54672;46.096;14.470;2023-02-28T13:27:33;3.11;70.76
67868;SHT31;54672;46.096;14.470;2023-02-28T13:30:01;2.92;70.17
67868;SHT31;54672;46.096;14.470;2023-02-28T13:32:32;2.94;70.62
67868;SHT31;54672;46.096;14.470;2023-02-28T13:39:52;3.12;71.08
67868;SHT31;54672;46.096;14.470;2023-02-28T13:42:32;3.25;71.02
67868;SHT31;54672;46.096;14.470;2023-02-28T13:47:31;3.07;70.55
67868;SHT31;54672;46.096;14.470;2023-02-28T14:06:23;3.19;71.11
67868;SHT31;54672;46.096;14.470;2023-02-28T14:11:33;3.28;70.49
67868;SHT31;54672;46.096;14.470;2023-02-28T14:14:01;3.28;70.45
67868;SHT31;54672;46.096;14.470;2023-02-28T14:16:36;3.15;70.67
67868;SHT31;54672;46.096;14.470;2023-02-28T14:22:25;3.15;71.49
67868;SHT31;54672;46.096;14.470;2023-02-28T14:36:18;3.14;71.53
67868;SHT31;54672;46.096;14.470;2023-02-28T14:38:55;3.05;71.16
67868;SHT31;54672;46.096;14.470;2023-02-28T14:41:36;3.08;70.99
67868;SHT31;54672;46.096;14.470;2023-02-28T14:44:33;3.11;71.51
67868;SHT31;54672;46.096;14.470;2023-02-28T14:47:02;3.07;72.43
67868;SHT31;54672;46.096;14.470;2023-02-28T14:49:31;3.07;71.85
67868;SHT31;54672;46.096;14.470;2023-02-28T14:54:38;3.05;71.89
67868;SHT31;54672;46.096;14.470;2023-02-28T14:57:04;3.01;72.32
67868;SHT31;54672;46.096;14.470;2023-02-28T14:59:35;3.01;72.19
67868;SHT31;54672;46.096;14.470;2023-02-28T15:02:20;2.92;72.51
67868;SHT31;54672;46.096;14.470;2023-02-28T15:04:58;3.00;72.26
67868;SHT31;54672;46.096;14.470;2023-02-28T15:07:24;2.94;72.25
67868;SHT31;54672;46.096;14.470;2023-02-28T15:10:25;2.88;72.73
67868;SHT31;54672;46.096;14.470;2023-02-28T15:12:55;2.84;72.35
67868;SHT31;54672;46.096;14.470;2023-02-28T15:15:22;2.77;72.79
67868;SHT31;54672;46.096;14.470;2023-02-28T15:17:53;2.81;73.01
67868;SHT31;54672;46.096;14.470;2023-02-28T15:20:20;2.76;72.41
67868;SHT31;54672;46.096;14.470;2023-02-28T15:22:47;2.70;73.12
67868;SHT31;54672;46.096;14.470;2023-02-28T15:25:19;2.74;73.62
67868;SHT31;54672;46.096;14.470;2023-02-28T15:27:47;2.80;73.16
67868;SHT31;54672;46.096;14.470;2023-02-28T15:30:17;2.77;73.26
67868;SHT31;54672;46.096;14.470;2023-02-28T15:32:44;2.81;73.74
67868;SHT31;54672;46.096;14.470;2023-02-28T15:38:02;2.68;73.56
67868;SHT31;54672;46.096;14.470;2023-02-28T15:40:38;2.76;73.63
67868;SHT31;54672;46.096;14.470;2023-02-28T15:43:13;2.83;73.71
67868;SHT31;54672;46.096;14.470;2023-02-28T15:45:50;2.85;72.96
67868;SHT31;54672;46.096;14.470;2023-02-28T15:48:25;2.79;73.52
67868;SHT31;54672;46.096;14.470;2023-02-28T15:53:44;2.79;73.66
67868;SHT31;54672;46.096;14.470;2023-02-28T15:56:31;2.79;73.73
67868;SHT31;54672;46.096;14.470;2023-02-28T15:59:03;2.76;74.01
67868;SHT31;54672;46.096;14.470;2023-02-28T16:01:36;2.76;73.72
67868;SHT31;54672;46.096;14.470;2023-02-28T16:04:12;2.80;73.41
67868;SHT31;54672;46.096;14.470;2023-02-28T16:06:43;2.80;73.35
67868;SHT31;54672;46.096;14.470;2023-02-28T16:09:16;2.73;74.08
67868;SHT31;54672;46.096;14.470;2023-02-28T16:11:52;2.76;73.92
67868;SHT31;54672;46.096;14.470;2023-02-28T16:14:21;2.73;73.66
67868;SHT31;54672;46.096;14.470;2023-02-28T16:16:50;2.61;73.89
67868;SHT31;54672;46.096;14.470;2023-02-28T16:19:20;2.63;73.65
67868;SHT31;54672;46.096;14.470;2023-02-28T16:21:46;2.58;73.80
67868;SHT31;54672;46.096;14.470;2023-02-28T16:24:12;2.58;74.22
67868;SHT31;54672;46.096;14.470;2023-02-28T16:26:40;2.58;73.96
67868;SHT31;54672;46.096;14.470;2023-02-28T16:29:06;2.58;74.37
67868;SHT31;54672;46.096;14.470;2023-02-28T16:31:35;2.52;74.36
67868;SHT31;54672;46.096;14.470;2023-02-28T16:34:02;2.57;74.26
67868;SHT31;54672;46.096;14.470;2023-02-28T16:36:31;2.57;74.47
67868;SHT31;54672;46.096;14.470;2023-02-28T16:38:56;2.56;74.72
67868;SHT31;54672;46.096;14.470;2023-02-28T16:41:27;2.58;74.85
67868;SHT31;54672;46.096;14.470;2023-02-28T16:43:55;2.53;74.92
67868;SHT31;54672;46.096;14.470;2023-02-28T16:46:32;2.53;75.07
67868;SHT31;54672;46.096;14.470;2023-02-28T16:49:02;2.53;75.17
67868;SHT31;54672;46.096;14.470;2023-02-28T16:51:28;2.53;75.07
67868;SHT31;54672;46.096;14.470;2023-02-28T16:53:54;2.47;75.44
67868;SHT31;54672;46.096;14.470;2023-02-28T16:56:24;2.50;75.40
67868;SHT31;54672;46.096;14.470;2023-02-28T16:58:51;2.44;74.96
67868;SHT31;54672;46.096;14.470;2023-02-28T17:01:17;2.42;75.17
67868;SHT31;54672;46.096;14.470;2023-02-28T17:03:47;2.43;75.59
67868;SHT31;54672;46.096;14.470;2023-02-28T17:06:31;2.47;74.74
67868;SHT31;54672;46.096;14.470;2023-02-28T17:08:58;2.43;75.37
67868;SHT31;54672;46.096;14.470;2023-02-28T17:11:24;2.47;75.19
67868;SHT31;54672;46.096;14.470;2023-02-28T17:13:51;2.43;75.57
67868;SHT31;54672;46.096;14.470;2023-02-28T17:16:26;2.43;75.52
67868;SHT31;54672;46.096;14.470;2023-02-28T17:18:54;2.46;75.70
67868;SHT31;54672;46.096;14.470;2023-02-28T17:21:20;2.43;75.90
67868;SHT31;54672;46.096;14.470;2023-02-28T17:23:45;2.46;75.63
67868;SHT31;54672;46.096;14.470;2023-02-28T17:26:16;2.40;75.89
67868;SHT31;54672;46.096;14.470;2023-02-28T17:28:49;2.44;75.81
67868;SHT31;54672;46.096;14.470;2023-02-28T17:31:16;2.46;75.94
67868;SHT31;54672;46.096;14.470;2023-02-28T17:33:41;2.43;76.19
67868;SHT31;54672;46.096;14.470;2023-02-28T17:36:13;2.40;76.05
67868;SHT31;54672;46.096;14.470;2023-02-28T17:38:39;2.39;76.28
67868;SHT31;54672;46.096;14.470;2023-02-28T17:41:05;2.42;76.28
67868;SHT31;54672;46.096;14.470;2023-02-28T17:43:30;2.36;76.35
67868;SHT31;54672;46.096;14.470;2023-02-28T17:45:55;2.37;76.19
67868;SHT31;54672;46.096;14.470;2023-02-28T17:48:21;2.34;76.31
67868;SHT31;54672;46.096;14.470;2023-02-28T17:50:47;2.37;76.29
67868;SHT31;54672;46.096;14.470;2023-02-28T17:53:12;2.36;76.58
67868;SHT31;54672;46.096;14.470;2023-02-28T17:55:38;2.39;75.77
67868;SHT31;54672;46.096;14.470;2023-02-28T17:58:03;2.37;76.30
67868;SHT31;54672;46.096;14.470;2023-02-28T18:00:30;2.33;75.87
67868;SHT31;54672;46.096;14.470;2023-02-28T18:02:57;2.40;76.29
67868;SHT31;54672;46.096;14.470;2023-02-28T18:05:22;2.36;76.43
67868;SHT31;54672;46.096;14.470;2023-02-28T18:07:48;2.33;76.57
67868;SHT31;54672;46.096;14.470;2023-02-28T18:10:18;2.44;76.36
67868;SHT31;54672;46.096;14.470;2023-02-28T18:12:46;2.43;76.48
67868;SHT31;54672;46.096;14.470;2023-02-28T18:15:12;2.40;76.61